Time;durP1;ratioP1;P1;durP2;ratioP2;P2;SDS_P1;SDS_P2;PMS_P1;PMS_P2;Temp;Humidity;BMP_temperature;BMP_pressure;BME280_temperature;BME280_humidity;BME280_pressure;Samples;Min_cycle;Max_cycle;Signal;HPM_P1;HPM_P2
2023/06/08 00:00:41;;;;;;;3.77;3.47;;;;;;;;;;5092832;28;20501;-58
2023/06/08 00:03:08;;;;;;;3.73;3.40;;;;;;;;;;5092648;28;20454;-57
2023/06/08 00:05:43;;;;;;;4.90;3.57;;;;;;;;;;5092662;28;20443;-58
2023/06/08 00:08:11;;;;;;;4.53;3.90;;;;;;;;;;5092533;28;20454;-58
2023/06/08 00:10:37;;;;;;;4.90;3.80;;;;;;;;;;5092740;28;20530;-59
2023/06/08 00:13:05;;;;;;;8.70;4.00;;;;;;;;;;5092760;28;20961;-58
2023/06/08 00:15:32;;;;;;;4.67;3.60;;;;;;;;;;5092579;28;20446;-57
2023/06/08 00:18:01;;;;;;;4.10;3.30;;;;;;;;;;5092477;28;20439;-56
2023/06/08 00:20:28;;;;;;;4.40;4.10;;;;;;;;;;5092388;28;20508;-58
2023/06/08 00:22:56;;;;;;;4.60;4.20;;;;;;;;;;5093909;28;20449;-57
2023/06/08 00:25:23;;;;;;;3.73;3.50;;;;;;;;;;5096292;28;20476;-58
2023/06/08 00:27:50;;;;;;;3.90;3.60;;;;;;;;;;5096059;28;20452;-57
2023/06/08 00:30:17;;;;;;;4.40;4.00;;;;;;;;;;5096125;28;20469;-56
2023/06/08 00:32:44;;;;;;;5.77;4.40;;;;;;;;;;5095994;28;20424;-57
2023/06/08 00:35:12;;;;;;;4.83;4.53;;;;;;;;;;5095853;28;20454;-57
2023/06/08 00:37:39;;;;;;;5.17;4.00;;;;;;;;;;5095991;28;20443;-59
2023/06/08 00:40:07;;;;;;;4.70;4.30;;;;;;;;;;5095981;28;21001;-58
2023/06/08 00:42:34;;;;;;;5.07;4.67;;;;;;;;;;5095921;28;20453;-58
2023/06/08 00:45:00;;;;;;;4.80;4.43;;;;;;;;;;5095625;28;20482;-57
2023/06/08 00:47:27;;;;;;;4.67;4.27;;;;;;;;;;5095682;28;20447;-59
2023/06/08 00:49:56;;;;;;;5.53;4.17;;;;;;;;;;5095796;28;20425;-58
2023/06/08 00:52:25;;;;;;;4.40;4.00;;;;;;;;;;5095823;28;20529;-58
2023/06/08 00:54:53;;;;;;;4.00;3.70;;;;;;;;;;5095637;28;20478;-58
2023/06/08 00:57:21;;;;;;;4.30;3.90;;;;;;;;;;5095458;28;20496;-57
2023/06/08 00:59:49;;;;;;;9.03;4.47;;;;;;;;;;5095453;28;20454;-58
2023/06/08 01:02:17;;;;;;;7.70;4.93;;;;;;;;;;5095361;28;20440;-57
2023/06/08 01:04:45;;;;;;;5.03;4.40;;;;;;;;;;5095482;28;20485;-57
2023/06/08 01:07:16;;;;;;;5.33;4.10;;;;;;;;;;5095231;28;20945;-57
2023/06/08 01:09:50;;;;;;;4.30;4.00;;;;;;;;;;5095385;28;20458;-57
2023/06/08 01:12:22;;;;;;;4.40;4.00;;;;;;;;;;5095155;28;20454;-58
2023/06/08 01:14:52;;;;;;;4.47;4.10;;;;;;;;;;5095053;28;20451;-56
2023/06/08 01:17:24;;;;;;;4.57;4.00;;;;;;;;;;5095111;28;20460;-58
2023/06/08 01:20:07;;;;;;;4.97;3.63;;;;;;;;;;5095011;28;20934;-58
2023/06/08 01:22:44;;;;;;;5.90;4.40;;;;;;;;;;5095072;28;20441;-58
2023/06/08 01:25:13;;;;;;;5.70;4.37;;;;;;;;;;5094836;28;20970;-58
2023/06/08 01:27:39;;;;;;;6.67;4.80;;;;;;;;;;5094930;28;20462;-59
2023/06/08 01:30:08;;;;;;;4.20;3.90;;;;;;;;;;5094963;28;20821;-58
2023/06/08 01:32:35;;;;;;;4.30;4.00;;;;;;;;;;5094841;28;20453;-57
2023/06/08 01:35:02;;;;;;;4.80;4.27;;;;;;;;;;5094343;28;20460;-58
2023/06/08 01:37:34;;;;;;;4.47;4.03;;;;;;;;;;5094475;28;20993;-59
2023/06/08 01:40:03;;;;;;;4.30;4.00;;;;;;;;;;5094839;28;20453;-58
2023/06/08 01:42:33;;;;;;;5.07;4.67;;;;;;;;;;5094686;28;20486;-58
2023/06/08 01:45:01;;;;;;;5.67;4.80;;;;;;;;;;5094483;28;20493;-57
2023/06/08 01:47:32;;;;;;;4.50;4.20;;;;;;;;;;5094426;28;20546;-57
2023/06/08 01:49:59;;;;;;;6.97;4.37;;;;;;;;;;5094363;28;20453;-58
2023/06/08 01:52:27;;;;;;;4.80;4.27;;;;;;;;;;5094268;28;20453;-57
2023/06/08 01:54:53;;;;;;;4.40;3.60;;;;;;;;;;5094383;28;20478;-57
2023/06/08 01:57:20;;;;;;;4.70;4.10;;;;;;;;;;5094297;28;20457;-58
2023/06/08 01:59:49;;;;;;;4.60;4.20;;;;;;;;;;5094341;28;20807;-58
2023/06/08 02:02:16;;;;;;;5.10;4.50;;;;;;;;;;5094265;28;20457;-57
2023/06/08 02:04:43;;;;;;;4.00;3.70;;;;;;;;;;5094019;28;20527;-57
2023/06/08 02:07:10;;;;;;;5.63;4.40;;;;;;;;;;5093937;28;20450;-57
2023/06/08 02:09:37;;;;;;;3.90;3.70;;;;;;;;;;5094220;28;20453;-58
2023/06/08 02:12:06;;;;;;;5.33;4.20;;;;;;;;;;5094183;28;20548;-58
2023/06/08 02:14:33;;;;;;;5.17;4.70;;;;;;;;;;5093984;28;20453;-58
2023/06/08 02:17:03;;;;;;;4.40;4.00;;;;;;;;;;5093945;28;20545;-57
2023/06/08 02:19:31;;;;;;;4.80;4.13;;;;;;;;;;5093859;28;20543;-57
2023/06/08 02:21:58;;;;;;;4.57;4.10;;;;;;;;;;5093888;28;20476;-58
2023/06/08 02:24:25;;;;;;;5.73;3.83;;;;;;;;;;5093775;28;20515;-58
2023/06/08 02:26:52;;;;;;;4.97;4.47;;;;;;;;;;5093828;28;20449;-58
2023/06/08 02:29:19;;;;;;;4.93;4.53;;;;;;;;;;5093601;28;20843;-57
2023/06/08 02:31:46;;;;;;;4.83;4.40;;;;;;;;;;5093483;28;20453;-58
2023/06/08 02:34:15;;;;;;;6.20;4.27;;;;;;;;;;5093831;28;20463;-57
2023/06/08 02:36:42;;;;;;;8.57;4.80;;;;;;;;;;5093563;28;20535;-58
2023/06/08 02:39:09;;;;;;;4.37;4.07;;;;;;;;;;5093646;28;20450;-59
2023/06/08 02:41:36;;;;;;;3.97;3.70;;;;;;;;;;5093523;28;20551;-57
2023/06/08 02:44:03;;;;;;;4.87;4.47;;;;;;;;;;5093346;28;20552;-57
2023/06/08 02:46:31;;;;;;;6.77;4.63;;;;;;;;;;5092434;28;20947;-57
2023/06/08 02:48:57;;;;;;;5.67;4.20;;;;;;;;;;5093548;28;20460;-56
2023/06/08 02:51:26;;;;;;;6.63;4.20;;;;;;;;;;5093458;28;20445;-56
2023/06/08 02:53:53;;;;;;;4.67;4.20;;;;;;;;;;5093360;28;20861;-58
2023/06/08 02:56:21;;;;;;;5.23;4.30;;;;;;;;;;5093055;28;20473;-57
2023/06/08 02:58:48;;;;;;;4.80;4.03;;;;;;;;;;5093090;28;20484;-58
2023/06/08 03:01:15;;;;;;;4.57;4.13;;;;;;;;;;5093458;28;20441;-57
2023/06/08 03:03:42;;;;;;;6.13;4.40;;;;;;;;;;5093238;28;20453;-58
2023/06/08 03:06:09;;;;;;;4.40;3.83;;;;;;;;;;5093041;28;20501;-57
2023/06/08 03:08:38;;;;;;;11.93;5.03;;;;;;;;;;5093160;28;20540;-58
2023/06/08 03:11:04;;;;;;;4.70;4.30;;;;;;;;;;5093089;28;20452;-57
2023/06/08 03:13:31;;;;;;;5.00;4.60;;;;;;;;;;5092892;28;20456;-58
2023/06/08 03:15:59;;;;;;;6.20;3.70;;;;;;;;;;5093112;28;20886;-58
2023/06/08 03:18:26;;;;;;;5.10;4.30;;;;;;;;;;5093027;28;20424;-58
2023/06/08 03:20:53;;;;;;;4.60;4.20;;;;;;;;;;5092970;28;20448;-57
2023/06/08 03:23:20;;;;;;;5.93;5.37;;;;;;;;;;5092924;28;20508;-58
2023/06/08 03:25:51;;;;;;;6.43;4.57;;;;;;;;;;5092731;28;20996;-57
2023/06/08 03:28:18;;;;;;;6.90;4.47;;;;;;;;;;5092800;28;20448;-58
2023/06/08 03:30:45;;;;;;;8.10;5.23;;;;;;;;;;5092952;28;20454;-57
2023/06/08 03:33:14;;;;;;;5.53;4.50;;;;;;;;;;5092891;28;20841;-56
2023/06/08 03:35:41;;;;;;;7.63;4.80;;;;;;;;;;5093183;28;20486;-57
2023/06/08 03:38:08;;;;;;;6.50;5.03;;;;;;;;;;5092752;28;20455;-58
2023/06/08 03:40:35;;;;;;;4.47;4.03;;;;;;;;;;5092773;28;20886;-58
2023/06/08 03:43:03;;;;;;;4.27;3.97;;;;;;;;;;5092875;28;20449;-58
2023/06/08 03:45:31;;;;;;;8.93;4.70;;;;;;;;;;5092778;28;20578;-57
2023/06/08 03:47:58;;;;;;;4.80;4.10;;;;;;;;;;5092606;28;20956;-58
2023/06/08 03:50:24;;;;;;;4.87;4.47;;;;;;;;;;5092747;28;20456;-57
2023/06/08 03:52:52;;;;;;;12.10;4.43;;;;;;;;;;5092664;28;20456;-59
2023/06/08 03:55:21;;;;;;;4.30;3.90;;;;;;;;;;5092451;28;20483;-58
2023/06/08 03:57:50;;;;;;;5.13;4.00;;;;;;;;;;5093757;28;20451;-58
2023/06/08 04:00:20;;;;;;;5.97;4.50;;;;;;;;;;5096658;28;20442;-57
2023/06/08 04:02:47;;;;;;;4.50;4.10;;;;;;;;;;5096660;28;20503;-58
2023/06/08 04:05:14;;;;;;;6.07;4.10;;;;;;;;;;5096453;28;20975;-57
2023/06/08 04:07:41;;;;;;;10.07;4.77;;;;;;;;;;5096841;28;20938;-59
2023/06/08 04:10:10;;;;;;;4.37;4.07;;;;;;;;;;5097076;28;20501;-59
2023/06/08 04:12:37;;;;;;;5.43;4.40;;;;;;;;;;5096730;28;20444;-57
2023/06/08 04:15:04;;;;;;;5.90;4.50;;;;;;;;;;5096419;28;20505;-58
2023/06/08 04:17:33;;;;;;;5.10;4.60;;;;;;;;;;5096617;28;20975;-59
2023/06/08 04:20:00;;;;;;;4.63;4.33;;;;;;;;;;5096279;28;20477;-59
2023/06/08 04:22:27;;;;;;;5.57;3.97;;;;;;;;;;5096116;28;20452;-59
2023/06/08 04:24:54;;;;;;;5.77;4.70;;;;;;;;;;5096236;28;20535;-58
2023/06/08 04:27:21;;;;;;;6.20;4.60;;;;;;;;;;5096230;28;20463;-59
2023/06/08 04:29:48;;;;;;;4.10;3.70;;;;;;;;;;5096091;28;20474;-60
2023/06/08 04:32:15;;;;;;;6.67;4.70;;;;;;;;;;5095938;28;20445;-59
2023/06/08 04:34:44;;;;;;;4.90;4.50;;;;;;;;;;5095835;28;20457;-59
2023/06/08 04:37:11;;;;;;;4.60;4.20;;;;;;;;;;5096102;28;20872;-60
2023/06/08 04:39:38;;;;;;;7.10;3.90;;;;;;;;;;5096515;28;20782;-57
2023/06/08 04:42:06;;;;;;;4.67;4.27;;;;;;;;;;5096113;28;20441;-56
2023/06/08 04:44:33;;;;;;;4.73;4.33;;;;;;;;;;5095861;28;20956;-57
2023/06/08 04:47:01;;;;;;;5.07;4.47;;;;;;;;;;5095871;28;20428;-57
2023/06/08 04:49:31;;;;;;;4.87;4.33;;;;;;;;;;5095827;28;20458;-59
2023/06/08 04:52:00;;;;;;;5.57;5.07;;;;;;;;;;5095763;28;20453;-59
2023/06/08 04:54:28;;;;;;;7.33;4.20;;;;;;;;;;5095586;28;20497;-57
2023/06/08 04:56:58;;;;;;;4.30;4.00;;;;;;;;;;5095913;28;20794;-58
2023/06/08 04:59:26;;;;;;;4.77;4.20;;;;;;;;;;5095585;28;20464;-57
2023/06/08 05:01:53;;;;;;;5.40;4.83;;;;;;;;;;5095376;28;20455;-57
2023/06/08 05:04:20;;;;;;;5.57;4.93;;;;;;;;;;5095876;28;20500;-59
2023/06/08 05:06:47;;;;;;;9.03;5.10;;;;;;;;;;5095418;28;20485;-57
2023/06/08 05:09:16;;;;;;;5.20;4.80;;;;;;;;;;5094496;28;20452;-58
2023/06/08 05:11:43;;;;;;;8.27;4.40;;;;;;;;;;5095251;28;20613;-58
2023/06/08 05:14:10;;;;;;;5.20;4.53;;;;;;;;;;5095217;28;20453;-58
2023/06/08 05:16:38;;;;;;;5.10;4.60;;;;;;;;;;5095339;28;20450;-58
2023/06/08 05:19:05;;;;;;;7.30;5.07;;;;;;;;;;5095221;28;20448;-57
2023/06/08 05:21:32;;;;;;;8.90;4.50;;;;;;;;;;5095153;28;20507;-56
2023/06/08 05:23:59;;;;;;;4.87;4.17;;;;;;;;;;5095120;28;20471;-57
2023/06/08 05:26:27;;;;;;;4.63;3.97;;;;;;;;;;5094966;28;20477;-57
2023/06/08 05:28:55;;;;;;;7.17;4.27;;;;;;;;;;5094980;28;20706;-57
2023/06/08 05:31:21;;;;;;;8.23;4.00;;;;;;;;;;5095112;28;20450;-57
2023/06/08 05:33:48;;;;;;;9.73;5.40;;;;;;;;;;5095014;28;20463;-57
2023/06/08 05:36:15;;;;;;;5.30;4.63;;;;;;;;;;5094691;28;20971;-58
2023/06/08 05:38:43;;;;;;;11.83;5.03;;;;;;;;;;5094763;28;20451;-58
2023/06/08 05:41:10;;;;;;;5.63;4.90;;;;;;;;;;5094690;28;20468;-57
2023/06/08 05:43:38;;;;;;;10.13;4.57;;;;;;;;;;5094584;28;20442;-58
2023/06/08 05:46:05;;;;;;;12.67;6.30;;;;;;;;;;5094639;28;20517;-56
2023/06/08 05:48:32;;;;;;;4.67;4.27;;;;;;;;;;5094238;28;20930;-58
2023/06/08 05:50:59;;;;;;;8.20;5.53;;;;;;;;;;5094486;28;20457;-56
2023/06/08 05:53:26;;;;;;;5.73;5.13;;;;;;;;;;5094466;28;20450;-57
2023/06/08 05:55:53;;;;;;;4.13;3.63;;;;;;;;;;5093998;28;20969;-58
2023/06/08 05:58:21;;;;;;;6.07;4.60;;;;;;;;;;5094397;28;20441;-57
2023/06/08 06:00:49;;;;;;;4.03;3.70;;;;;;;;;;5094388;28;20458;-57
2023/06/08 06:03:16;;;;;;;4.63;4.20;;;;;;;;;;5094260;28;20545;-56
2023/06/08 06:05:43;;;;;;;7.00;4.37;;;;;;;;;;5094057;28;20565;-57
2023/06/08 06:08:10;;;;;;;6.33;3.90;;;;;;;;;;5094089;28;20778;-57
2023/06/08 06:10:37;;;;;;;5.57;4.90;;;;;;;;;;5094003;28;20486;-57
2023/06/08 06:13:04;;;;;;;4.73;3.70;;;;;;;;;;5094194;28;20482;-56
2023/06/08 06:15:30;;;;;;;4.70;4.13;;;;;;;;;;5094055;28;20488;-56
2023/06/08 06:18:00;;;;;;;4.53;4.13;;;;;;;;;;5093919;28;20443;-58
2023/06/08 06:20:29;;;;;;;4.60;4.10;;;;;;;;;;5093741;28;21056;-57
2023/06/08 06:22:56;;;;;;;7.80;4.53;;;;;;;;;;5093744;28;20451;-57
2023/06/08 06:25:24;;;;;;;4.37;3.97;;;;;;;;;;5093894;28;20471;-59
2023/06/08 06:27:51;;;;;;;4.40;3.63;;;;;;;;;;5093866;28;20447;-58
2023/06/08 06:30:18;;;;;;;15.60;4.73;;;;;;;;;;5093693;28;20538;-58
2023/06/08 06:32:45;;;;;;;11.00;3.80;;;;;;;;;;5093582;28;20538;-59
2023/06/08 06:35:13;;;;;;;9.40;3.87;;;;;;;;;;5093610;28;20443;-56
2023/06/08 06:37:40;;;;;;;5.23;3.50;;;;;;;;;;5093447;28;20504;-57
2023/06/08 06:40:09;;;;;;;11.53;4.73;;;;;;;;;;5093680;28;20443;-58
2023/06/08 06:42:37;;;;;;;3.90;3.37;;;;;;;;;;5093686;28;20498;-58
2023/06/08 06:45:04;;;;;;;5.30;4.07;;;;;;;;;;5093416;28;20443;-58
2023/06/08 06:47:31;;;;;;;14.53;5.57;;;;;;;;;;5093434;28;20447;-58
2023/06/08 06:49:58;;;;;;;4.27;3.87;;;;;;;;;;5093330;28;21022;-59
2023/06/08 06:52:26;;;;;;;5.27;3.60;;;;;;;;;;5093268;28;20475;-58
2023/06/08 06:54:53;;;;;;;6.90;3.97;;;;;;;;;;5093111;28;20910;-58
2023/06/08 06:57:20;;;;;;;4.73;3.73;;;;;;;;;;5093040;28;20815;-58
2023/06/08 06:59:48;;;;;;;4.20;3.90;;;;;;;;;;5104206;28;20450;-58
2023/06/08 07:02:15;;;;;;;6.13;4.33;;;;;;;;;;5109769;28;20455;-58
2023/06/08 07:04:42;;;;;;;3.90;3.50;;;;;;;;;;5103477;28;20451;-58
2023/06/08 07:07:09;;;;;;;4.20;3.80;;;;;;;;;;5096398;28;20481;-57
2023/06/08 07:09:37;;;;;;;4.63;3.60;;;;;;;;;;5095197;28;20447;-58
2023/06/08 07:12:05;;;;;;;4.30;3.90;;;;;;;;;;5100107;28;20867;-57
2023/06/08 07:14:32;;;;;;;4.33;3.70;;;;;;;;;;5113245;28;20450;-57
2023/06/08 07:16:59;;;;;;;4.43;3.77;;;;;;;;;;5096197;28;20464;-56
2023/06/08 07:19:26;;;;;;;7.93;4.20;;;;;;;;;;5110973;28;20481;-57
2023/06/08 07:21:54;;;;;;;4.60;4.13;;;;;;;;;;5096992;28;20447;-59
2023/06/08 07:24:21;;;;;;;5.73;3.77;;;;;;;;;;5092868;28;20455;-57
2023/06/08 07:26:49;;;;;;;4.50;4.10;;;;;;;;;;5092636;28;20786;-52
2023/06/08 07:29:16;;;;;;;3.90;3.53;;;;;;;;;;5092614;28;20451;-56
2023/06/08 07:31:43;;;;;;;9.13;4.90;;;;;;;;;;5092089;28;20927;-56
2023/06/08 07:34:10;;;;;;;4.27;3.97;;;;;;;;;;5095803;28;20522;-59
2023/06/08 07:36:37;;;;;;;6.37;3.20;;;;;;;;;;5096451;28;20493;-59
2023/06/08 07:39:04;;;;;;;5.27;4.10;;;;;;;;;;5096904;28;20447;-57
2023/06/08 07:41:31;;;;;;;4.37;3.97;;;;;;;;;;5096739;28;20449;-57
2023/06/08 07:44:01;;;;;;;4.50;3.97;;;;;;;;;;5096555;28;20504;-58
2023/06/08 07:46:28;;;;;;;4.40;4.00;;;;;;;;;;5096435;28;20485;-58
2023/06/08 07:48:55;;;;;;;5.13;3.83;;;;;;;;;;5096774;28;21021;-60
2023/06/08 07:51:22;;;;;;;4.03;3.73;;;;;;;;;;5096332;28;20543;-59
2023/06/08 07:53:49;;;;;;;4.57;4.17;;;;;;;;;;5096117;28;20930;-58
2023/06/08 07:56:16;;;;;;;8.00;4.30;;;;;;;;;;5095935;28;20465;-58
2023/06/08 07:58:43;;;;;;;7.37;3.80;;;;;;;;;;5096414;28;20813;-58
2023/06/08 08:01:11;;;;;;;7.80;3.67;;;;;;;;;;5096672;28;20530;-59
2023/06/08 08:03:39;;;;;;;4.17;3.87;;;;;;;;;;5096500;28;20446;-60
2023/06/08 08:06:06;;;;;;;4.30;4.00;;;;;;;;;;5096602;28;20471;-60
2023/06/08 08:08:33;;;;;;;3.70;3.40;;;;;;;;;;5107937;28;20441;-60
2023/06/08 08:11:00;;;;;;;7.13;3.90;;;;;;;;;;5116607;28;20944;-59
2023/06/08 08:13:27;;;;;;;3.80;3.50;;;;;;;;;;5116462;28;20534;-58
2023/06/08 08:15:53;;;;;;;5.60;4.53;;;;;;;;;;5116438;27;20481;-58
2023/06/08 08:18:22;;;;;;;4.13;3.57;;;;;;;;;;5116534;28;20529;-57
2023/06/08 08:20:49;;;;;;;5.63;4.17;;;;;;;;;;5116546;28;20441;-57
2023/06/08 08:23:15;;;;;;;7.13;3.70;;;;;;;;;;5116504;28;20477;-59
2023/06/08 08:25:42;;;;;;;7.63;3.67;;;;;;;;;;5116199;28;20979;-58
2023/06/08 08:28:09;;;;;;;3.77;3.47;;;;;;;;;;5116196;28;20527;-57
2023/06/08 08:30:36;;;;;;;5.17;4.77;;;;;;;;;;5116354;28;20954;-59
2023/06/08 08:33:03;;;;;;;6.80;3.90;;;;;;;;;;5114183;28;20446;-58
2023/06/08 08:35:32;;;;;;;7.67;4.50;;;;;;;;;;5095386;28;20534;-58
2023/06/08 08:37:59;;;;;;;6.40;4.17;;;;;;;;;;5092957;28;20954;-57
2023/06/08 08:40:27;;;;;;;5.63;3.33;;;;;;;;;;5095427;28;20855;-57
2023/06/08 08:42:58;;;;;;;4.40;3.43;;;;;;;;;;5095335;28;20443;-57
2023/06/08 08:45:27;;;;;;;4.67;3.50;;;;;;;;;;5093647;28;20443;-59
2023/06/08 08:47:55;;;;;;;5.57;4.00;;;;;;;;;;5095139;28;20516;-57
2023/06/08 08:50:22;;;;;;;3.90;3.53;;;;;;;;;;5095342;28;20458;-59
2023/06/08 08:52:53;;;;;;;8.23;4.93;;;;;;;;;;5094858;28;20543;-58
2023/06/08 08:55:27;;;;;;;6.43;3.77;;;;;;;;;;5092169;28;20818;-56
2023/06/08 08:57:54;;;;;;;6.80;4.30;;;;;;;;;;5095160;28;20805;-58
2023/06/08 09:00:21;;;;;;;5.27;4.03;;;;;;;;;;5095505;28;20860;-58
2023/06/08 09:02:50;;;;;;;4.17;3.80;;;;;;;;;;5095227;28;20528;-58
2023/06/08 09:05:17;;;;;;;4.17;3.77;;;;;;;;;;5095248;28;20450;-57
2023/06/08 09:07:44;;;;;;;5.67;3.63;;;;;;;;;;5094910;28;20486;-58
2023/06/08 09:10:17;;;;;;;4.67;3.57;;;;;;;;;;5095182;28;20460;-57
2023/06/08 09:12:45;;;;;;;4.33;3.93;;;;;;;;;;5095114;28;20454;-57
2023/06/08 09:15:12;;;;;;;4.13;3.73;;;;;;;;;;5094839;28;20557;-56
2023/06/08 09:17:40;;;;;;;5.50;4.07;;;;;;;;;;5094872;28;20447;-58
2023/06/08 09:20:10;;;;;;;6.90;3.80;;;;;;;;;;5094834;28;20447;-56
2023/06/08 09:22:37;;;;;;;3.97;3.67;;;;;;;;;;5095013;28;20805;-57
2023/06/08 09:25:04;;;;;;;5.60;4.17;;;;;;;;;;5094953;28;20439;-58
2023/06/08 09:27:33;;;;;;;9.23;4.43;;;;;;;;;;5094746;28;20490;-61
2023/06/08 09:30:00;;;;;;;4.53;3.67;;;;;;;;;;5094835;28;20455;-60
2023/06/08 09:32:34;;;;;;;5.17;3.40;;;;;;;;;;5093939;28;20988;-60
2023/06/08 09:35:02;;;;;;;4.10;3.70;;;;;;;;;;5094638;28;20950;-60
2023/06/08 09:37:30;;;;;;;4.83;4.40;;;;;;;;;;5094686;28;20446;-54
2023/06/08 09:39:57;;;;;;;5.10;3.60;;;;;;;;;;5094592;28;20458;-59
2023/06/08 09:42:24;;;;;;;6.10;4.20;;;;;;;;;;5094435;28;20538;-59
2023/06/08 09:45:08;;;;;;;8.73;4.20;;;;;;;;;;5094393;28;20443;-60
2023/06/08 09:47:35;;;;;;;6.00;3.67;;;;;;;;;;5094445;28;20486;-59
2023/06/08 09:50:02;;;;;;;6.70;3.90;;;;;;;;;;5094199;28;20542;-58
2023/06/08 09:52:32;;;;;;;3.60;3.30;;;;;;;;;;5094290;28;20482;-58
2023/06/08 09:54:59;;;;;;;7.90;4.23;;;;;;;;;;5093370;28;20475;-58
2023/06/08 09:57:28;;;;;;;6.10;3.60;;;;;;;;;;5093448;28;20964;-59
2023/06/08 10:00:04;;;;;;;4.80;3.37;;;;;;;;;;5093503;28;20447;-58
2023/06/08 10:02:32;;;;;;;8.40;3.70;;;;;;;;;;5092255;28;20443;-57
2023/06/08 10:05:01;;;;;;;4.80;4.00;;;;;;;;;;5093979;28;20550;-58
2023/06/08 10:07:29;;;;;;;4.13;3.70;;;;;;;;;;5093456;28;20554;-57
2023/06/08 10:09:59;;;;;;;4.63;3.97;;;;;;;;;;5093369;28;20927;-56
2023/06/08 10:12:28;;;;;;;4.10;3.70;;;;;;;;;;5093886;28;20528;-58
2023/06/08 10:14:56;;;;;;;5.07;4.30;;;;;;;;;;5094183;28;20802;-57
2023/06/08 10:17:24;;;;;;;4.50;3.53;;;;;;;;;;5093853;28;20461;-57
2023/06/08 10:19:51;;;;;;;7.23;4.13;;;;;;;;;;5093912;28;20542;-57
2023/06/08 10:22:18;;;;;;;6.10;4.30;;;;;;;;;;5093613;28;21109;-58
2023/06/08 10:24:46;;;;;;;3.73;3.43;;;;;;;;;;5093611;28;20783;-57
2023/06/08 10:27:18;;;;;;;3.80;3.50;;;;;;;;;;5093768;28;20479;-56
2023/06/08 10:29:54;;;;;;;5.47;3.87;;;;;;;;;;5110180;28;20844;-59
2023/06/08 10:32:29;;;;;;;4.47;4.10;;;;;;;;;;5114010;28;20603;-59
2023/06/08 10:34:57;;;;;;;5.33;3.17;;;;;;;;;;5113870;28;20539;-58
2023/06/08 10:37:28;;;;;;;4.00;3.70;;;;;;;;;;5113945;28;20775;-60
2023/06/08 10:39:55;;;;;;;5.43;3.40;;;;;;;;;;5113856;28;20442;-54
2023/06/08 10:42:22;;;;;;;3.93;3.63;;;;;;;;;;5088741;28;20448;-61
2023/06/08 10:44:56;;;;;;;4.37;3.60;;;;;;;;;;5080743;28;20784;-57
2023/06/08 10:47:25;;;;;;;3.30;3.10;;;;;;;;;;5090209;28;20554;-59
2023/06/08 10:49:59;;;;;;;3.93;3.53;;;;;;;;;;5092694;28;20661;-56
2023/06/08 10:52:26;;;;;;;3.70;3.40;;;;;;;;;;5091053;28;20525;-60
2023/06/08 10:54:56;;;;;;;4.17;3.90;;;;;;;;;;5092519;28;20463;-58
2023/06/08 10:57:36;;;;;;;7.63;4.10;;;;;;;;;;5090416;28;20443;-57
2023/06/08 11:00:05;;;;;;;5.00;3.63;;;;;;;;;;5092086;28;20438;-57
2023/06/08 11:02:35;;;;;;;4.17;3.87;;;;;;;;;;5093068;28;20535;-57
2023/06/08 11:05:02;;;;;;;4.30;3.90;;;;;;;;;;5092603;28;20501;-58
2023/06/08 11:07:28;;;;;;;4.60;4.20;;;;;;;;;;5091581;28;20565;-57
2023/06/08 11:09:56;;;;;;;10.93;4.10;;;;;;;;;;5092478;28;20458;-57
2023/06/08 11:12:22;;;;;;;4.07;3.53;;;;;;;;;;5092579;28;20481;-59
2023/06/08 11:14:49;;;;;;;5.23;3.93;;;;;;;;;;5092659;28;20447;-56
2023/06/08 11:17:16;;;;;;;4.17;3.70;;;;;;;;;;5092882;28;20455;-58
2023/06/08 11:19:45;;;;;;;4.67;3.87;;;;;;;;;;5092964;28;20542;-57
2023/06/08 11:22:13;;;;;;;3.90;3.20;;;;;;;;;;5092969;28;20479;-60
2023/06/08 11:24:43;;;;;;;3.60;3.40;;;;;;;;;;5092797;28;20545;-58
2023/06/08 11:27:16;;;;;;;3.70;3.40;;;;;;;;;;5092373;28;20902;-58
2023/06/08 11:29:43;;;;;;;4.43;3.73;;;;;;;;;;5092589;28;20535;-58
2023/06/08 11:32:11;;;;;;;4.40;4.00;;;;;;;;;;5092085;28;21010;-58
2023/06/08 11:34:38;;;;;;;4.30;4.00;;;;;;;;;;5092775;28;20445;-57
2023/06/08 11:37:06;;;;;;;4.10;3.77;;;;;;;;;;5092619;28;20538;-58
2023/06/08 11:39:33;;;;;;;4.67;4.27;;;;;;;;;;5112906;28;20541;-58
2023/06/08 11:42:00;;;;;;;7.27;4.20;;;;;;;;;;5112875;28;20442;-57
2023/06/08 11:44:27;;;;;;;5.20;4.17;;;;;;;;;;5113095;28;20452;-58
2023/06/08 11:46:55;;;;;;;5.50;3.90;;;;;;;;;;5095321;28;20885;-59
2023/06/08 11:49:22;;;;;;;4.23;3.90;;;;;;;;;;5089523;28;20443;-58
2023/06/08 11:51:51;;;;;;;4.33;4.03;;;;;;;;;;5092143;28;20883;-55
2023/06/08 11:54:20;;;;;;;3.93;3.63;;;;;;;;;;5095150;28;20505;-57
2023/06/08 11:56:47;;;;;;;6.63;5.10;;;;;;;;;;5091731;28;21012;-58
2023/06/08 11:59:14;;;;;;;4.10;3.70;;;;;;;;;;5092100;28;20530;-56
2023/06/08 12:01:57;;;;;;;5.90;3.73;;;;;;;;;;5092075;28;20454;-57
2023/06/08 12:04:30;;;;;;;4.10;3.80;;;;;;;;;;5102892;28;20992;-56
2023/06/08 12:06:58;;;;;;;5.20;4.03;;;;;;;;;;5112653;28;20457;-57
2023/06/08 12:09:26;;;;;;;4.93;4.47;;;;;;;;;;5113021;28;20975;-57
2023/06/08 12:11:54;;;;;;;5.20;4.50;;;;;;;;;;5113230;28;20516;-57
2023/06/08 12:14:21;;;;;;;3.60;3.40;;;;;;;;;;5112757;28;20445;-57
2023/06/08 12:16:48;;;;;;;6.53;4.53;;;;;;;;;;5097410;28;20492;-56
2023/06/08 12:19:15;;;;;;;3.80;3.60;;;;;;;;;;5093712;28;20486;-57
2023/06/08 12:21:42;;;;;;;4.10;3.70;;;;;;;;;;5095200;28;20600;-57
2023/06/08 12:24:09;;;;;;;4.87;3.87;;;;;;;;;;5095927;28;20443;-56
2023/06/08 12:26:37;;;;;;;5.13;4.67;;;;;;;;;;5096823;28;20458;-56
2023/06/08 12:29:05;;;;;;;5.17;4.03;;;;;;;;;;5096239;28;20482;-57
2023/06/08 12:31:32;;;;;;;4.20;3.90;;;;;;;;;;5106195;28;20561;-57
2023/06/08 12:33:59;;;;;;;4.23;3.93;;;;;;;;;;5101714;28;20525;-57
2023/06/08 12:36:27;;;;;;;5.33;4.80;;;;;;;;;;5112569;28;20445;-58
2023/06/08 12:38:55;;;;;;;4.90;4.60;;;;;;;;;;5100648;28;20446;-57
2023/06/08 12:41:22;;;;;;;3.90;3.70;;;;;;;;;;5106890;28;20864;-57
2023/06/08 12:43:50;;;;;;;4.10;3.77;;;;;;;;;;5108407;28;20880;-57
2023/06/08 12:46:19;;;;;;;4.47;4.07;;;;;;;;;;5098638;28;20483;-57
2023/06/08 12:48:47;;;;;;;5.27;4.27;;;;;;;;;;5114087;28;20500;-56
2023/06/08 12:51:13;;;;;;;5.00;4.57;;;;;;;;;;5108003;28;20527;-57
2023/06/08 12:53:41;;;;;;;5.47;3.80;;;;;;;;;;5107201;28;20895;-56
2023/06/08 12:56:07;;;;;;;4.10;3.70;;;;;;;;;;5099956;28;20554;-56
2023/06/08 12:58:34;;;;;;;5.73;4.43;;;;;;;;;;5102754;28;20610;-56
2023/06/08 13:01:03;;;;;;;4.00;3.67;;;;;;;;;;5095926;28;20443;-56
2023/06/08 13:03:29;;;;;;;4.50;4.03;;;;;;;;;;5096258;28;20868;-58
2023/06/08 13:05:57;;;;;;;4.30;3.70;;;;;;;;;;5096039;28;20538;-56
2023/06/08 13:08:24;;;;;;;5.23;3.60;;;;;;;;;;5096042;28;20928;-57
2023/06/08 13:10:51;;;;;;;5.67;4.20;;;;;;;;;;5094330;28;20492;-57
2023/06/08 13:13:18;;;;;;;9.60;4.57;;;;;;;;;;5094895;28;20937;-57
2023/06/08 13:15:48;;;;;;;7.27;3.40;;;;;;;;;;5095017;28;20460;-55
2023/06/08 13:18:17;;;;;;;6.03;3.80;;;;;;;;;;5093520;28;20841;-58
2023/06/08 13:20:44;;;;;;;4.03;3.73;;;;;;;;;;5095162;28;20532;-57
2023/06/08 13:23:11;;;;;;;3.90;3.60;;;;;;;;;;5095073;28;20455;-57
2023/06/08 13:25:38;;;;;;;4.63;3.60;;;;;;;;;;5094912;28;20482;-57
2023/06/08 13:28:07;;;;;;;5.30;3.67;;;;;;;;;;5094690;28;20903;-57
2023/06/08 13:30:34;;;;;;;4.90;4.50;;;;;;;;;;5094279;28;20446;-56
2023/06/08 13:33:01;;;;;;;4.03;3.73;;;;;;;;;;5094981;28;20454;-57
2023/06/08 13:35:29;;;;;;;4.10;3.70;;;;;;;;;;5094848;28;20455;-58
2023/06/08 13:37:56;;;;;;;4.10;3.73;;;;;;;;;;5094623;28;20529;-58
2023/06/08 13:40:23;;;;;;;7.03;3.60;;;;;;;;;;5094640;28;20449;-59
2023/06/08 13:42:51;;;;;;;4.60;3.90;;;;;;;;;;5094490;28;20451;-59
2023/06/08 13:45:20;;;;;;;4.07;3.50;;;;;;;;;;5094642;28;20451;-59
2023/06/08 13:47:48;;;;;;;4.20;3.47;;;;;;;;;;5094150;28;21054;-58
2023/06/08 13:50:14;;;;;;;4.73;3.30;;;;;;;;;;5094546;28;20770;-58
2023/06/08 13:52:43;;;;;;;4.67;4.10;;;;;;;;;;5094348;28;20453;-58
2023/06/08 13:55:10;;;;;;;4.47;3.90;;;;;;;;;;5094111;28;20504;-58
2023/06/08 13:57:37;;;;;;;4.10;3.80;;;;;;;;;;5094429;28;20447;-58
2023/06/08 14:00:05;;;;;;;4.00;3.70;;;;;;;;;;5094341;28;20962;-58
2023/06/08 14:02:32;;;;;;;7.13;4.30;;;;;;;;;;5094288;28;20983;-59
2023/06/08 14:04:59;;;;;;;4.17;3.83;;;;;;;;;;5094164;28;20446;-58
2023/06/08 14:07:26;;;;;;;3.80;3.50;;;;;;;;;;5093928;28;20482;-58
2023/06/08 14:09:55;;;;;;;6.80;3.70;;;;;;;;;;5093929;28;20492;-58
2023/06/08 14:12:22;;;;;;;4.00;3.67;;;;;;;;;;5094490;28;20454;-57
2023/06/08 14:14:49;;;;;;;4.17;3.93;;;;;;;;;;5093748;28;20952;-58
2023/06/08 14:17:17;;;;;;;5.27;4.10;;;;;;;;;;5093928;28;20486;-58
2023/06/08 14:19:44;;;;;;;5.20;3.70;;;;;;;;;;5094188;28;20447;-58
2023/06/08 14:22:11;;;;;;;4.07;3.77;;;;;;;;;;5093777;28;20802;-58
2023/06/08 14:24:38;;;;;;;4.37;3.97;;;;;;;;;;5093988;28;20443;-58
2023/06/08 14:27:06;;;;;;;3.40;3.20;;;;;;;;;;5093489;28;20447;-58
2023/06/08 14:29:34;;;;;;;4.17;3.27;;;;;;;;;;5093491;28;20985;-58
2023/06/08 14:32:01;;;;;;;3.97;3.67;;;;;;;;;;5093695;28;20450;-59
2023/06/08 14:34:28;;;;;;;4.83;4.37;;;;;;;;;;5093524;28;20458;-58
2023/06/08 14:36:55;;;;;;;6.30;3.70;;;;;;;;;;5093546;28;20443;-58
2023/06/08 14:39:21;;;;;;;3.53;3.33;;;;;;;;;;5093466;28;20968;-58
2023/06/08 14:41:48;;;;;;;12.33;4.50;;;;;;;;;;5093597;28;20530;-58
2023/06/08 14:44:17;;;;;;;6.10;4.80;;;;;;;;;;5093532;28;20439;-58
2023/06/08 14:46:43;;;;;;;4.40;4.00;;;;;;;;;;5093274;28;20551;-58